sensor_id;sensor_type;location;lat;lon;timestamp;P1;durP1;ratioP1;P2;durP2;ratioP2
26223;SDS011;14820;48.682;8.890;2023-03-22T00:01:58;4.90;;;3.00;;
26223;SDS011;14820;48.682;8.890;2023-03-22T00:04:25;4.53;;;2.90;;
26223;SDS011;14820;48.682;8.890;2023-03-22T00:06:50;4.45;;;3.00;;
26223;SDS011;14820;48.682;8.890;2023-03-22T00:09:16;5.30;;;2.75;;
26223;SDS011;14820;48.682;8.890;2023-03-22T00:11:42;5.00;;;2.80;;
26223;SDS011;14820;48.682;8.890;2023-03-22T00:14:07;6.93;;;3.08;;
26223;SDS011;14820;48.682;8.890;2023-03-22T00:16:33;7.22;;;2.85;;
26223;SDS011;14820;48.682;8.890;2023-03-22T00:18:59;4.80;;;3.05;;
26223;SDS011;14820;48.682;8.890;2023-03-22T00:21:26;4.53;;;2.85;;
26223;SDS011;14820;48.682;8.890;2023-03-22T00:23:52;4.82;;;3.10;;
26223;SDS011;14820;48.682;8.890;2023-03-22T00:26:17;6.20;;;3.65;;
26223;SDS011;14820;48.682;8.890;2023-03-22T00:28:43;7.93;;;3.25;;
26223;SDS011;14820;48.682;8.890;2023-03-22T00:31:09;3.55;;;2.45;;
26223;SDS011;14820;48.682;8.890;2023-03-22T00:33:35;3.70;;;2.88;;
26223;SDS011;14820;48.682;8.890;2023-03-22T00:36:05;4.95;;;2.95;;
26223;SDS011;14820;48.682;8.890;2023-03-22T00:38:33;4.70;;;2.70;;
26223;SDS011;14820;48.682;8.890;2023-03-22T00:41:03;3.15;;;2.22;;
26223;SDS011;14820;48.682;8.890;2023-03-22T00:43:32;6.22;;;2.78;;
26223;SDS011;14820;48.682;8.890;2023-03-22T00:45:58;6.88;;;3.40;;
26223;SDS011;14820;48.682;8.890;2023-03-22T00:48:24;5.53;;;3.40;;
26223;SDS011;14820;48.682;8.890;2023-03-22T00:50:49;5.25;;;2.88;;
26223;SDS011;14820;48.682;8.890;2023-03-22T00:53:15;4.82;;;3.13;;
26223;SDS011;14820;48.682;8.890;2023-03-22T00:55:41;6.18;;;3.05;;
26223;SDS011;14820;48.682;8.890;2023-03-22T00:58:06;4.20;;;2.85;;
26223;SDS011;14820;48.682;8.890;2023-03-22T01:00:32;5.10;;;2.90;;
26223;SDS011;14820;48.682;8.890;2023-03-22T01:02:58;5.53;;;2.97;;
26223;SDS011;14820;48.682;8.890;2023-03-22T01:05:29;5.22;;;2.70;;
26223;SDS011;14820;48.682;8.890;2023-03-22T01:07:58;5.25;;;2.70;;
26223;SDS011;14820;48.682;8.890;2023-03-22T01:10:32;5.60;;;2.78;;
26223;SDS011;14820;48.682;8.890;2023-03-22T01:13:08;4.80;;;2.75;;
26223;SDS011;14820;48.682;8.890;2023-03-22T01:15:34;5.18;;;2.67;;
26223;SDS011;14820;48.682;8.890;2023-03-22T01:18:00;5.55;;;2.92;;
26223;SDS011;14820;48.682;8.890;2023-03-22T01:20:26;4.13;;;2.60;;
26223;SDS011;14820;48.682;8.890;2023-03-22T01:22:52;6.43;;;2.60;;
26223;SDS011;14820;48.682;8.890;2023-03-22T01:25:18;4.78;;;2.78;;
26223;SDS011;14820;48.682;8.890;2023-03-22T01:27:44;3.25;;;2.38;;
26223;SDS011;14820;48.682;8.890;2023-03-22T01:30:10;5.45;;;2.97;;
26223;SDS011;14820;48.682;8.890;2023-03-22T01:32:36;6.80;;;2.50;;
26223;SDS011;14820;48.682;8.890;2023-03-22T01:35:03;3.70;;;2.35;;
26223;SDS011;14820;48.682;8.890;2023-03-22T01:37:29;6.88;;;2.72;;
26223;SDS011;14820;48.682;8.890;2023-03-22T01:39:56;3.88;;;2.85;;
26223;SDS011;14820;48.682;8.890;2023-03-22T01:42:22;4.07;;;2.78;;
26223;SDS011;14820;48.682;8.890;2023-03-22T01:47:43;4.25;;;2.45;;
26223;SDS011;14820;48.682;8.890;2023-03-22T01:50:10;4.57;;;2.38;;
26223;SDS011;14820;48.682;8.890;2023-03-22T01:52:36;4.93;;;2.67;;
26223;SDS011;14820;48.682;8.890;2023-03-22T01:55:02;4.07;;;2.67;;
26223;SDS011;14820;48.682;8.890;2023-03-22T01:57:30;5.07;;;2.83;;
26223;SDS011;14820;48.682;8.890;2023-03-22T02:00:01;7.00;;;2.88;;
26223;SDS011;14820;48.682;8.890;2023-03-22T02:02:39;5.07;;;2.60;;
26223;SDS011;14820;48.682;8.890;2023-03-22T02:05:06;4.90;;;2.42;;
26223;SDS011;14820;48.682;8.890;2023-03-22T02:07:33;5.10;;;2.75;;
26223;SDS011;14820;48.682;8.890;2023-03-22T02:10:01;4.32;;;2.50;;
26223;SDS011;14820;48.682;8.890;2023-03-22T02:15:37;5.00;;;2.80;;
26223;SDS011;14820;48.682;8.890;2023-03-22T02:25:51;6.80;;;2.83;;
26223;SDS011;14820;48.682;8.890;2023-03-22T02:34:21;4.00;;;2.78;;
26223;SDS011;14820;48.682;8.890;2023-03-22T02:42:37;5.50;;;2.65;;
26223;SDS011;14820;48.682;8.890;2023-03-22T02:45:12;5.85;;;2.55;;
26223;SDS011;14820;48.682;8.890;2023-03-22T02:50:14;8.20;;;3.05;;
26223;SDS011;14820;48.682;8.890;2023-03-22T02:53:01;5.85;;;2.90;;
26223;SDS011;14820;48.682;8.890;2023-03-22T02:55:57;5.53;;;2.80;;
26223;SDS011;14820;48.682;8.890;2023-03-22T02:58:28;3.72;;;2.95;;
26223;SDS011;14820;48.682;8.890;2023-03-22T03:01:14;4.45;;;2.63;;
26223;SDS011;14820;48.682;8.890;2023-03-22T03:03:51;3.08;;;2.33;;
26223;SDS011;14820;48.682;8.890;2023-03-22T03:06:24;3.83;;;2.65;;
26223;SDS011;14820;48.682;8.890;2023-03-22T03:08:55;4.22;;;2.60;;
26223;SDS011;14820;48.682;8.890;2023-03-22T03:11:22;5.93;;;2.80;;
26223;SDS011;14820;48.682;8.890;2023-03-22T03:13:48;7.75;;;2.70;;
26223;SDS011;14820;48.682;8.890;2023-03-22T03:16:17;5.15;;;2.60;;
26223;SDS011;14820;48.682;8.890;2023-03-22T03:18:58;4.82;;;2.40;;
26223;SDS011;14820;48.682;8.890;2023-03-22T03:21:49;5.72;;;2.80;;
26223;SDS011;14820;48.682;8.890;2023-03-22T03:24:32;5.85;;;3.08;;
26223;SDS011;14820;48.682;8.890;2023-03-22T03:27:07;7.80;;;2.67;;
26223;SDS011;14820;48.682;8.890;2023-03-22T03:29:49;5.47;;;2.50;;
26223;SDS011;14820;48.682;8.890;2023-03-22T03:32:39;5.57;;;2.40;;
26223;SDS011;14820;48.682;8.890;2023-03-22T03:35:15;5.10;;;2.40;;
26223;SDS011;14820;48.682;8.890;2023-03-22T03:38:03;7.45;;;2.50;;
26223;SDS011;14820;48.682;8.890;2023-03-22T03:40:39;6.07;;;2.60;;
26223;SDS011;14820;48.682;8.890;2023-03-22T03:43:08;5.95;;;2.80;;
26223;SDS011;14820;48.682;8.890;2023-03-22T03:45:35;6.32;;;2.47;;
26223;SDS011;14820;48.682;8.890;2023-03-22T03:48:08;6.95;;;2.60;;
26223;SDS011;14820;48.682;8.890;2023-03-22T03:50:38;4.20;;;2.72;;
26223;SDS011;14820;48.682;8.890;2023-03-22T03:53:04;4.55;;;2.47;;
26223;SDS011;14820;48.682;8.890;2023-03-22T03:55:30;3.33;;;2.50;;
26223;SDS011;14820;48.682;8.890;2023-03-22T03:57:57;4.68;;;2.65;;
26223;SDS011;14820;48.682;8.890;2023-03-22T04:00:22;3.33;;;2.38;;
26223;SDS011;14820;48.682;8.890;2023-03-22T04:02:48;8.27;;;2.65;;
26223;SDS011;14820;48.682;8.890;2023-03-22T04:05:14;5.78;;;3.20;;
26223;SDS011;14820;48.682;8.890;2023-03-22T04:07:40;6.18;;;2.92;;
26223;SDS011;14820;48.682;8.890;2023-03-22T04:10:06;5.00;;;2.38;;
26223;SDS011;14820;48.682;8.890;2023-03-22T04:12:32;4.07;;;2.30;;
26223;SDS011;14820;48.682;8.890;2023-03-22T04:14:58;5.22;;;2.60;;
26223;SDS011;14820;48.682;8.890;2023-03-22T04:17:24;4.05;;;2.15;;
26223;SDS011;14820;48.682;8.890;2023-03-22T04:19:53;3.20;;;2.28;;
26223;SDS011;14820;48.682;8.890;2023-03-22T04:22:23;3.35;;;2.30;;
26223;SDS011;14820;48.682;8.890;2023-03-22T04:24:50;4.75;;;2.15;;
26223;SDS011;14820;48.682;8.890;2023-03-22T04:27:16;6.10;;;2.50;;
26223;SDS011;14820;48.682;8.890;2023-03-22T04:29:42;5.85;;;2.58;;
26223;SDS011;14820;48.682;8.890;2023-03-22T04:32:15;3.97;;;2.45;;
26223;SDS011;14820;48.682;8.890;2023-03-22T04:34:46;4.28;;;2.40;;
26223;SDS011;14820;48.682;8.890;2023-03-22T04:37:12;4.47;;;2.58;;
26223;SDS011;14820;48.682;8.890;2023-03-22T04:39:38;5.32;;;2.35;;
26223;SDS011;14820;48.682;8.890;2023-03-22T04:42:05;4.90;;;2.30;;
26223;SDS011;14820;48.682;8.890;2023-03-22T04:44:30;5.85;;;2.47;;
26223;SDS011;14820;48.682;8.890;2023-03-22T04:46:56;5.82;;;2.75;;
26223;SDS011;14820;48.682;8.890;2023-03-22T04:49:22;4.28;;;2.85;;
26223;SDS011;14820;48.682;8.890;2023-03-22T04:51:47;7.03;;;2.60;;
26223;SDS011;14820;48.682;8.890;2023-03-22T04:54:13;4.35;;;2.60;;
26223;SDS011;14820;48.682;8.890;2023-03-22T04:56:39;4.07;;;2.58;;
26223;SDS011;14820;48.682;8.890;2023-03-22T04:59:04;6.90;;;2.85;;
26223;SDS011;14820;48.682;8.890;2023-03-22T05:01:30;4.88;;;2.60;;
26223;SDS011;14820;48.682;8.890;2023-03-22T05:03:56;4.43;;;2.70;;
26223;SDS011;14820;48.682;8.890;2023-03-22T05:06:22;6.13;;;3.40;;
26223;SDS011;14820;48.682;8.890;2023-03-22T05:08:48;5.55;;;3.72;;
26223;SDS011;14820;48.682;8.890;2023-03-22T05:11:15;6.80;;;4.22;;
26223;SDS011;14820;48.682;8.890;2023-03-22T05:13:43;8.60;;;5.25;;
26223;SDS011;14820;48.682;8.890;2023-03-22T05:16:09;9.65;;;5.07;;
26223;SDS011;14820;48.682;8.890;2023-03-22T05:18:35;7.10;;;4.63;;
26223;SDS011;14820;48.682;8.890;2023-03-22T05:21:08;8.52;;;4.53;;
26223;SDS011;14820;48.682;8.890;2023-03-22T05:23:41;8.32;;;4.30;;
26223;SDS011;14820;48.682;8.890;2023-03-22T05:26:07;7.90;;;3.83;;
26223;SDS011;14820;48.682;8.890;2023-03-22T05:28:34;6.35;;;3.88;;
26223;SDS011;14820;48.682;8.890;2023-03-22T05:31:00;5.70;;;3.97;;
26223;SDS011;14820;48.682;8.890;2023-03-22T05:33:27;8.27;;;3.90;;
26223;SDS011;14820;48.682;8.890;2023-03-22T05:35:53;9.68;;;3.85;;
26223;SDS011;14820;48.682;8.890;2023-03-22T05:38:20;7.65;;;3.65;;
26223;SDS011;14820;48.682;8.890;2023-03-22T05:40:47;5.60;;;3.20;;
26223;SDS011;14820;48.682;8.890;2023-03-22T05:43:13;8.10;;;3.65;;
26223;SDS011;14820;48.682;8.890;2023-03-22T05:45:39;6.10;;;3.45;;
26223;SDS011;14820;48.682;8.890;2023-03-22T05:48:05;10.48;;;4.30;;
26223;SDS011;14820;48.682;8.890;2023-03-22T05:50:31;12.57;;;4.20;;
26223;SDS011;14820;48.682;8.890;2023-03-22T05:52:58;5.90;;;3.67;;
26223;SDS011;14820;48.682;8.890;2023-03-22T05:55:24;5.72;;;3.42;;
26223;SDS011;14820;48.682;8.890;2023-03-22T05:57:50;6.47;;;3.60;;
26223;SDS011;14820;48.682;8.890;2023-03-22T06:00:18;8.15;;;4.47;;
26223;SDS011;14820;48.682;8.890;2023-03-22T06:02:46;8.50;;;4.38;;
26223;SDS011;14820;48.682;8.890;2023-03-22T06:05:13;10.07;;;4.93;;
26223;SDS011;14820;48.682;8.890;2023-03-22T06:07:41;8.93;;;6.03;;
26223;SDS011;14820;48.682;8.890;2023-03-22T06:10:09;18.80;;;10.00;;
26223;SDS011;14820;48.682;8.890;2023-03-22T06:12:36;16.85;;;9.48;;
26223;SDS011;14820;48.682;8.890;2023-03-22T06:15:02;20.15;;;9.88;;
26223;SDS011;14820;48.682;8.890;2023-03-22T06:17:29;18.67;;;10.40;;
26223;SDS011;14820;48.682;8.890;2023-03-22T06:19:55;19.30;;;9.90;;
26223;SDS011;14820;48.682;8.890;2023-03-22T06:22:21;16.55;;;8.52;;
26223;SDS011;14820;48.682;8.890;2023-03-22T06:24:47;14.48;;;8.10;;
26223;SDS011;14820;48.682;8.890;2023-03-22T06:27:14;10.82;;;5.80;;
26223;SDS011;14820;48.682;8.890;2023-03-22T06:29:40;8.50;;;5.07;;
26223;SDS011;14820;48.682;8.890;2023-03-22T06:32:06;10.75;;;5.20;;
26223;SDS011;14820;48.682;8.890;2023-03-22T06:34:31;8.88;;;5.80;;
26223;SDS011;14820;48.682;8.890;2023-03-22T06:36:57;8.15;;;5.22;;
26223;SDS011;14820;48.682;8.890;2023-03-22T06:39:23;8.85;;;5.68;;
26223;SDS011;14820;48.682;8.890;2023-03-22T06:41:49;8.70;;;5.03;;
26223;SDS011;14820;48.682;8.890;2023-03-22T06:44:15;10.02;;;4.60;;
26223;SDS011;14820;48.682;8.890;2023-03-22T06:46:41;9.13;;;4.97;;
26223;SDS011;14820;48.682;8.890;2023-03-22T06:49:07;8.18;;;4.75;;
26223;SDS011;14820;48.682;8.890;2023-03-22T06:51:33;8.02;;;4.65;;
26223;SDS011;14820;48.682;8.890;2023-03-22T06:53:59;6.13;;;4.35;;
26223;SDS011;14820;48.682;8.890;2023-03-22T06:56:24;9.20;;;4.75;;
26223;SDS011;14820;48.682;8.890;2023-03-22T06:58:51;7.30;;;4.03;;
26223;SDS011;14820;48.682;8.890;2023-03-22T07:01:18;7.82;;;4.07;;
26223;SDS011;14820;48.682;8.890;2023-03-22T07:03:44;5.93;;;3.85;;
26223;SDS011;14820;48.682;8.890;2023-03-22T07:06:10;5.68;;;3.55;;
26223;SDS011;14820;48.682;8.890;2023-03-22T07:08:36;7.05;;;3.47;;
26223;SDS011;14820;48.682;8.890;2023-03-22T07:11:03;5.93;;;3.75;;
26223;SDS011;14820;48.682;8.890;2023-03-22T07:13:29;6.78;;;3.45;;
26223;SDS011;14820;48.682;8.890;2023-03-22T07:15:55;7.55;;;3.40;;
26223;SDS011;14820;48.682;8.890;2023-03-22T07:18:25;8.02;;;2.63;;
26223;SDS011;14820;48.682;8.890;2023-03-22T07:20:51;6.05;;;3.38;;
26223;SDS011;14820;48.682;8.890;2023-03-22T07:23:17;5.90;;;3.03;;
26223;SDS011;14820;48.682;8.890;2023-03-22T07:25:46;8.73;;;3.05;;
26223;SDS011;14820;48.682;8.890;2023-03-22T07:28:15;6.25;;;2.70;;
26223;SDS011;14820;48.682;8.890;2023-03-22T07:30:43;5.25;;;2.78;;
26223;SDS011;14820;48.682;8.890;2023-03-22T07:33:09;4.85;;;2.33;;
26223;SDS011;14820;48.682;8.890;2023-03-22T07:35:35;5.05;;;2.88;;
26223;SDS011;14820;48.682;8.890;2023-03-22T07:38:04;6.45;;;2.80;;
26223;SDS011;14820;48.682;8.890;2023-03-22T07:40:31;6.50;;;2.50;;
26223;SDS011;14820;48.682;8.890;2023-03-22T07:43:04;5.32;;;2.60;;
26223;SDS011;14820;48.682;8.890;2023-03-22T07:45:36;4.18;;;2.33;;
26223;SDS011;14820;48.682;8.890;2023-03-22T07:48:05;3.58;;;2.28;;
26223;SDS011;14820;48.682;8.890;2023-03-22T07:50:30;5.90;;;2.30;;
26223;SDS011;14820;48.682;8.890;2023-03-22T07:52:59;3.97;;;2.22;;
26223;SDS011;14820;48.682;8.890;2023-03-22T07:55:26;7.38;;;2.55;;
26223;SDS011;14820;48.682;8.890;2023-03-22T07:57:52;5.90;;;2.38;;
26223;SDS011;14820;48.682;8.890;2023-03-22T08:00:18;8.02;;;2.30;;
26223;SDS011;14820;48.682;8.890;2023-03-22T08:02:44;4.60;;;2.60;;
26223;SDS011;14820;48.682;8.890;2023-03-22T08:05:10;3.80;;;2.30;;
26223;SDS011;14820;48.682;8.890;2023-03-22T08:07:35;5.88;;;2.28;;
26223;SDS011;14820;48.682;8.890;2023-03-22T08:10:02;6.30;;;2.42;;
26223;SDS011;14820;48.682;8.890;2023-03-22T08:12:31;4.63;;;2.50;;
26223;SDS011;14820;48.682;8.890;2023-03-22T08:14:57;5.78;;;2.75;;
26223;SDS011;14820;48.682;8.890;2023-03-22T08:17:23;4.68;;;2.40;;
26223;SDS011;14820;48.682;8.890;2023-03-22T08:19:50;4.00;;;2.90;;
26223;SDS011;14820;48.682;8.890;2023-03-22T08:22:16;5.10;;;2.70;;
26223;SDS011;14820;48.682;8.890;2023-03-22T08:24:45;3.85;;;2.28;;
26223;SDS011;14820;48.682;8.890;2023-03-22T08:27:13;5.07;;;2.65;;
26223;SDS011;14820;48.682;8.890;2023-03-22T08:29:39;5.00;;;2.47;;
26223;SDS011;14820;48.682;8.890;2023-03-22T08:32:06;4.75;;;2.63;;
26223;SDS011;14820;48.682;8.890;2023-03-22T08:34:35;6.82;;;2.70;;
26223;SDS011;14820;48.682;8.890;2023-03-22T08:37:03;3.53;;;2.35;;
26223;SDS011;14820;48.682;8.890;2023-03-22T08:39:29;6.47;;;2.88;;
26223;SDS011;14820;48.682;8.890;2023-03-22T08:41:56;6.65;;;2.45;;
26223;SDS011;14820;48.682;8.890;2023-03-22T08:44:22;4.30;;;2.20;;
26223;SDS011;14820;48.682;8.890;2023-03-22T08:46:47;6.03;;;2.30;;
26223;SDS011;14820;48.682;8.890;2023-03-22T08:49:13;5.50;;;2.20;;
26223;SDS011;14820;48.682;8.890;2023-03-22T08:51:40;4.22;;;2.20;;
26223;SDS011;14820;48.682;8.890;2023-03-22T08:54:06;5.63;;;2.35;;
26223;SDS011;14820;48.682;8.890;2023-03-22T08:56:32;6.22;;;2.10;;
26223;SDS011;14820;48.682;8.890;2023-03-22T08:59:02;4.03;;;2.10;;
26223;SDS011;14820;48.682;8.890;2023-03-22T09:01:28;3.15;;;1.50;;
26223;SDS011;14820;48.682;8.890;2023-03-22T09:03:58;3.05;;;1.90;;
26223;SDS011;14820;48.682;8.890;2023-03-22T09:06:23;4.80;;;2.20;;
26223;SDS011;14820;48.682;8.890;2023-03-22T09:08:50;4.32;;;2.17;;
26223;SDS011;14820;48.682;8.890;2023-03-22T09:11:17;5.25;;;2.13;;
26223;SDS011;14820;48.682;8.890;2023-03-22T09:13:43;2.28;;;1.63;;
26223;SDS011;14820;48.682;8.890;2023-03-22T09:16:09;2.63;;;1.80;;
26223;SDS011;14820;48.682;8.890;2023-03-22T09:18:36;3.13;;;1.95;;
26223;SDS011;14820;48.682;8.890;2023-03-22T09:21:05;4.10;;;1.75;;
26223;SDS011;14820;48.682;8.890;2023-03-22T09:23:33;3.08;;;2.00;;
26223;SDS011;14820;48.682;8.890;2023-03-22T09:26:00;7.00;;;1.80;;
26223;SDS011;14820;48.682;8.890;2023-03-22T09:28:28;3.72;;;2.00;;
26223;SDS011;14820;48.682;8.890;2023-03-22T09:30:58;3.00;;;1.55;;
26223;SDS011;14820;48.682;8.890;2023-03-22T09:33:28;3.67;;;2.03;;
26223;SDS011;14820;48.682;8.890;2023-03-22T09:35:54;2.92;;;1.90;;
26223;SDS011;14820;48.682;8.890;2023-03-22T09:38:21;5.13;;;1.45;;
26223;SDS011;14820;48.682;8.890;2023-03-22T09:44:06;3.88;;;1.48;;
26223;SDS011;14820;48.682;8.890;2023-03-22T09:46:39;2.85;;;1.70;;
26223;SDS011;14820;48.682;8.890;2023-03-22T09:49:18;4.28;;;1.58;;
26223;SDS011;14820;48.682;8.890;2023-03-22T09:51:50;1.40;;;1.30;;
26223;SDS011;14820;48.682;8.890;2023-03-22T09:59:48;2.67;;;1.00;;
26223;SDS011;14820;48.682;8.890;2023-03-22T10:02:41;2.67;;;1.10;;
26223;SDS011;14820;48.682;8.890;2023-03-22T10:05:18;2.58;;;0.90;;
26223;SDS011;14820;48.682;8.890;2023-03-22T10:10:35;1.80;;;1.10;;
26223;SDS011;14820;48.682;8.890;2023-03-22T10:16:05;1.27;;;0.77;;
26223;SDS011;14820;48.682;8.890;2023-03-22T10:18:45;1.30;;;0.85;;
26223;SDS011;14820;48.682;8.890;2023-03-22T10:21:15;1.90;;;1.00;;
26223;SDS011;14820;48.682;8.890;2023-03-22T10:23:46;2.60;;;0.80;;
26223;SDS011;14820;48.682;8.890;2023-03-22T10:26:23;1.45;;;0.95;;
26223;SDS011;14820;48.682;8.890;2023-03-22T10:31:27;0.82;;;0.77;;
26223;SDS011;14820;48.682;8.890;2023-03-22T10:34:14;2.28;;;0.82;;
26223;SDS011;14820;48.682;8.890;2023-03-22T10:36:59;0.70;;;0.70;;
26223;SDS011;14820;48.682;8.890;2023-03-22T10:39:39;3.28;;;0.70;;
26223;SDS011;14820;48.682;8.890;2023-03-22T10:42:12;1.17;;;0.77;;
26223;SDS011;14820;48.682;8.890;2023-03-22T10:44:46;1.00;;;0.80;;
26223;SDS011;14820;48.682;8.890;2023-03-22T10:47:50;0.90;;;0.70;;
26223;SDS011;14820;48.682;8.890;2023-03-22T10:50:23;1.27;;;0.80;;
26223;SDS011;14820;48.682;8.890;2023-03-22T10:53:14;2.95;;;0.73;;
26223;SDS011;14820;48.682;8.890;2023-03-22T10:55:50;1.25;;;0.70;;
26223;SDS011;14820;48.682;8.890;2023-03-22T10:58:17;1.90;;;0.80;;
26223;SDS011;14820;48.682;8.890;2023-03-22T11:00:45;2.78;;;0.95;;
26223;SDS011;14820;48.682;8.890;2023-03-22T11:03:35;1.40;;;0.80;;
26223;SDS011;14820;48.682;8.890;2023-03-22T11:08:40;2.20;;;0.88;;
26223;SDS011;14820;48.682;8.890;2023-03-22T11:11:28;1.88;;;0.75;;
26223;SDS011;14820;48.682;8.890;2023-03-22T11:14:13;4.53;;;0.93;;
26223;SDS011;14820;48.682;8.890;2023-03-22T11:19:37;1.45;;;0.77;;
26223;SDS011;14820;48.682;8.890;2023-03-22T11:22:03;2.75;;;0.75;;
26223;SDS011;14820;48.682;8.890;2023-03-22T11:24:32;1.35;;;0.90;;
26223;SDS011;14820;48.682;8.890;2023-03-22T11:27:06;1.23;;;0.68;;
26223;SDS011;14820;48.682;8.890;2023-03-22T11:29:46;0.82;;;0.80;;
26223;SDS011;14820;48.682;8.890;2023-03-22T11:32:58;1.10;;;0.80;;
26223;SDS011;14820;48.682;8.890;2023-03-22T11:35:24;1.73;;;0.75;;
26223;SDS011;14820;48.682;8.890;2023-03-22T11:37:52;1.92;;;0.77;;
26223;SDS011;14820;48.682;8.890;2023-03-22T11:40:26;1.70;;;0.90;;
26223;SDS011;14820;48.682;8.890;2023-03-22T11:42:55;3.03;;;0.80;;
26223;SDS011;14820;48.682;8.890;2023-03-22T11:48:08;0.90;;;0.70;;
26223;SDS011;14820;48.682;8.890;2023-03-22T11:50:42;1.65;;;0.80;;
26223;SDS011;14820;48.682;8.890;2023-03-22T11:53:11;3.28;;;0.90;;
26223;SDS011;14820;48.682;8.890;2023-03-22T11:55:40;2.20;;;0.80;;
26223;SDS011;14820;48.682;8.890;2023-03-22T11:58:06;2.50;;;0.77;;
26223;SDS011;14820;48.682;8.890;2023-03-22T12:00:35;0.95;;;0.70;;
26223;SDS011;14820;48.682;8.890;2023-03-22T12:03:08;2.13;;;0.80;;
26223;SDS011;14820;48.682;8.890;2023-03-22T12:05:41;1.00;;;0.80;;
26223;SDS011;14820;48.682;8.890;2023-03-22T12:08:13;1.35;;;0.70;;
26223;SDS011;14820;48.682;8.890;2023-03-22T12:10:50;3.40;;;0.73;;
26223;SDS011;14820;48.682;8.890;2023-03-22T12:16:13;0.95;;;0.80;;
26223;SDS011;14820;48.682;8.890;2023-03-22T12:21:50;1.15;;;0.80;;
26223;SDS011;14820;48.682;8.890;2023-03-22T12:24:30;1.63;;;0.73;;
26223;SDS011;14820;48.682;8.890;2023-03-22T12:27:02;1.30;;;0.80;;
26223;SDS011;14820;48.682;8.890;2023-03-22T12:29:36;1.58;;;0.70;;
26223;SDS011;14820;48.682;8.890;2023-03-22T12:32:11;1.50;;;0.70;;
26223;SDS011;14820;48.682;8.890;2023-03-22T12:34:43;0.70;;;0.60;;
26223;SDS011;14820;48.682;8.890;2023-03-22T12:37:23;1.35;;;1.00;;
26223;SDS011;14820;48.682;8.890;2023-03-22T12:39:54;0.98;;;0.70;;
26223;SDS011;14820;48.682;8.890;2023-03-22T12:45:13;1.05;;;0.70;;
26223;SDS011;14820;48.682;8.890;2023-03-22T12:47:46;1.30;;;0.73;;
26223;SDS011;14820;48.682;8.890;2023-03-22T12:50:17;1.15;;;0.85;;
26223;SDS011;14820;48.682;8.890;2023-03-22T12:52:56;2.92;;;0.77;;
26223;SDS011;14820;48.682;8.890;2023-03-22T12:55:24;1.88;;;0.80;;
26223;SDS011;14820;48.682;8.890;2023-03-22T12:57:55;0.60;;;0.60;;
26223;SDS011;14820;48.682;8.890;2023-03-22T13:00:37;1.50;;;0.80;;
26223;SDS011;14820;48.682;8.890;2023-03-22T13:05:40;2.13;;;0.75;;
26223;SDS011;14820;48.682;8.890;2023-03-22T13:08:06;0.75;;;0.70;;
26223;SDS011;14820;48.682;8.890;2023-03-22T13:21:12;1.38;;;0.88;;
26223;SDS011;14820;48.682;8.890;2023-03-22T13:23:52;1.73;;;0.80;;
26223;SDS011;14820;48.682;8.890;2023-03-22T13:26:18;4.32;;;0.88;;
26223;SDS011;14820;48.682;8.890;2023-03-22T13:28:54;1.67;;;0.77;;
26223;SDS011;14820;48.682;8.890;2023-03-22T13:37:20;1.23;;;0.80;;
26223;SDS011;14820;48.682;8.890;2023-03-22T13:40:33;1.00;;;0.80;;
26223;SDS011;14820;48.682;8.890;2023-03-22T13:48:41;1.00;;;0.90;;
26223;SDS011;14820;48.682;8.890;2023-03-22T13:51:16;4.80;;;0.77;;
26223;SDS011;14820;48.682;8.890;2023-03-22T13:53:57;1.25;;;0.98;;
26223;SDS011;14820;48.682;8.890;2023-03-22T13:56:45;0.98;;;0.70;;
26223;SDS011;14820;48.682;8.890;2023-03-22T14:04:18;1.38;;;0.80;;
26223;SDS011;14820;48.682;8.890;2023-03-22T14:07:06;3.92;;;0.77;;
26223;SDS011;14820;48.682;8.890;2023-03-22T14:09:52;0.73;;;0.70;;
26223;SDS011;14820;48.682;8.890;2023-03-22T14:12:23;1.60;;;0.80;;
26223;SDS011;14820;48.682;8.890;2023-03-22T14:15:10;1.15;;;0.90;;
26223;SDS011;14820;48.682;8.890;2023-03-22T14:17:42;2.38;;;0.88;;
26223;SDS011;14820;48.682;8.890;2023-03-22T14:20:24;1.98;;;0.90;;
26223;SDS011;14820;48.682;8.890;2023-03-22T14:22:58;1.10;;;0.70;;
26223;SDS011;14820;48.682;8.890;2023-03-22T14:25:35;0.95;;;0.80;;
26223;SDS011;14820;48.682;8.890;2023-03-22T14:28:01;1.40;;;0.98;;
26223;SDS011;14820;48.682;8.890;2023-03-22T14:32:57;1.30;;;0.90;;
26223;SDS011;14820;48.682;8.890;2023-03-22T14:35:41;1.38;;;0.73;;
26223;SDS011;14820;48.682;8.890;2023-03-22T14:38:30;4.40;;;0.90;;
26223;SDS011;14820;48.682;8.890;2023-03-22T14:41:08;1.60;;;0.90;;
26223;SDS011;14820;48.682;8.890;2023-03-22T14:43:45;2.28;;;0.82;;
26223;SDS011;14820;48.682;8.890;2023-03-22T14:46:13;2.22;;;1.00;;
26223;SDS011;14820;48.682;8.890;2023-03-22T14:48:40;2.38;;;1.05;;
26223;SDS011;14820;48.682;8.890;2023-03-22T14:51:11;1.50;;;1.00;;
26223;SDS011;14820;48.682;8.890;2023-03-22T14:53:41;2.75;;;0.80;;
26223;SDS011;14820;48.682;8.890;2023-03-22T14:56:31;1.63;;;1.10;;
26223;SDS011;14820;48.682;8.890;2023-03-22T14:58:58;1.83;;;1.20;;
26223;SDS011;14820;48.682;8.890;2023-03-22T15:01:29;1.90;;;0.90;;
26223;SDS011;14820;48.682;8.890;2023-03-22T15:03:59;1.73;;;1.02;;
26223;SDS011;14820;48.682;8.890;2023-03-22T15:06:28;1.88;;;1.00;;
26223;SDS011;14820;48.682;8.890;2023-03-22T15:08:54;3.53;;;1.00;;
26223;SDS011;14820;48.682;8.890;2023-03-22T15:11:31;2.20;;;1.00;;
26223;SDS011;14820;48.682;8.890;2023-03-22T15:13:57;2.60;;;1.17;;
26223;SDS011;14820;48.682;8.890;2023-03-22T15:16:25;1.83;;;1.00;;
26223;SDS011;14820;48.682;8.890;2023-03-22T15:18:56;2.08;;;1.10;;
26223;SDS011;14820;48.682;8.890;2023-03-22T15:21:22;1.48;;;1.00;;
26223;SDS011;14820;48.682;8.890;2023-03-22T15:23:54;2.83;;;1.10;;
26223;SDS011;14820;48.682;8.890;2023-03-22T15:26:25;2.80;;;1.30;;
26223;SDS011;14820;48.682;8.890;2023-03-22T15:31:18;1.60;;;1.20;;
26223;SDS011;14820;48.682;8.890;2023-03-22T15:33:46;1.95;;;1.00;;
26223;SDS011;14820;48.682;8.890;2023-03-22T15:36:15;1.98;;;1.10;;
26223;SDS011;14820;48.682;8.890;2023-03-22T15:38:43;1.83;;;1.17;;
26223;SDS011;14820;48.682;8.890;2023-03-22T15:41:25;3.53;;;1.10;;
26223;SDS011;14820;48.682;8.890;2023-03-22T15:44:12;1.90;;;1.08;;
26223;SDS011;14820;48.682;8.890;2023-03-22T15:46:51;4.82;;;1.08;;
26223;SDS011;14820;48.682;8.890;2023-03-22T15:49:33;2.03;;;1.20;;
26223;SDS011;14820;48.682;8.890;2023-03-22T15:52:06;1.88;;;1.25;;
26223;SDS011;14820;48.682;8.890;2023-03-22T16:02:34;2.22;;;1.20;;
26223;SDS011;14820;48.682;8.890;2023-03-22T16:05:01;2.30;;;1.30;;
26223;SDS011;14820;48.682;8.890;2023-03-22T16:07:30;2.35;;;1.30;;
26223;SDS011;14820;48.682;8.890;2023-03-22T16:09:56;4.75;;;1.23;;
26223;SDS011;14820;48.682;8.890;2023-03-22T16:12:22;1.50;;;1.00;;
26223;SDS011;14820;48.682;8.890;2023-03-22T16:14:49;1.67;;;0.90;;
26223;SDS011;14820;48.682;8.890;2023-03-22T16:17:21;2.72;;;1.20;;
26223;SDS011;14820;48.682;8.890;2023-03-22T16:19:48;2.15;;;1.40;;
26223;SDS011;14820;48.682;8.890;2023-03-22T16:22:15;4.88;;;1.20;;
26223;SDS011;14820;48.682;8.890;2023-03-22T16:24:42;4.18;;;1.20;;
26223;SDS011;14820;48.682;8.890;2023-03-22T16:27:12;3.55;;;1.30;;
26223;SDS011;14820;48.682;8.890;2023-03-22T16:29:47;1.13;;;1.02;;
26223;SDS011;14820;48.682;8.890;2023-03-22T16:32:17;2.42;;;1.10;;
26223;SDS011;14820;48.682;8.890;2023-03-22T16:34:46;4.90;;;1.50;;
26223;SDS011;14820;48.682;8.890;2023-03-22T16:37:14;1.15;;;0.98;;
26223;SDS011;14820;48.682;8.890;2023-03-22T16:39:49;2.35;;;1.10;;
26223;SDS011;14820;48.682;8.890;2023-03-22T16:42:17;3.35;;;1.17;;
26223;SDS011;14820;48.682;8.890;2023-03-22T16:44:44;4.28;;;1.30;;
26223;SDS011;14820;48.682;8.890;2023-03-22T16:47:15;1.48;;;1.15;;
26223;SDS011;14820;48.682;8.890;2023-03-22T16:49:43;1.85;;;1.35;;
26223;SDS011;14820;48.682;8.890;2023-03-22T16:52:13;1.95;;;1.13;;